Time;durP1;ratioP1;P1;durP2;ratioP2;P2;SDS_P1;SDS_P2;PMS_P1;PMS_P2;Temp;Humidity;BMP_temperature;BMP_pressure;BME280_temperature;BME280_humidity;BME280_pressure;Samples;Min_cycle;Max_cycle;Signal;HPM_P1;HPM_P2
2022/05/06 00:04:31;;;;;;;2.10;1.95;;;;;;;19.60;49.35;97298.34;10257944;28;20395;-92
2022/05/06 00:09:51;;;;;;;2.38;2.17;;;;;;;19.59;49.44;97304.88;10239499;28;20070;-92
2022/05/06 00:15:11;;;;;;;2.65;2.45;;;;;;;19.58;49.27;97298.66;10249529;28;20098;-92
2022/05/06 00:20:31;;;;;;;2.40;2.20;;;;;;;19.58;49.45;97305.97;10236843;28;20110;-92
2022/05/06 00:25:50;;;;;;;2.50;2.30;;;;;;;19.57;49.33;97302.47;10246813;28;20058;-92
2022/05/06 00:31:12;;;;;;;2.83;2.03;;;;;;;19.56;49.29;97315.22;10235494;28;20058;-92
2022/05/06 00:36:31;;;;;;;2.78;2.10;;;;;;;19.56;49.24;97312.50;10282019;28;20047;-92
2022/05/06 00:41:55;;;;;;;2.05;1.95;;;;;;;19.55;49.33;97304.69;10255890;28;20119;-92
2022/05/06 00:47:19;;;;;;;2.53;2.33;;;;;;;19.54;49.27;97303.09;10243994;28;20042;-92
2022/05/06 00:52:39;;;;;;;2.03;1.90;;;;;;;19.54;49.29;97290.41;10263132;28;20122;-91
2022/05/06 00:57:58;;;;;;;2.30;2.10;;;;;;;19.55;49.38;97304.69;10272168;28;20051;-92
2022/05/06 01:03:18;;;;;;;2.30;2.10;;;;;;;19.53;49.25;97294.19;10270668;28;20122;-92
2022/05/06 01:08:38;;;;;;;2.30;2.10;;;;;;;19.52;49.27;97289.91;10263492;28;20130;-92
2022/05/06 01:14:00;;;;;;;2.25;2.05;;;;;;;19.51;49.35;97293.72;10258834;28;20040;-92
2022/05/06 01:19:26;;;;;;;2.03;1.92;;;;;;;19.51;49.35;97280.19;10250158;28;20050;-92
2022/05/06 01:24:46;;;;;;;2.00;1.90;;;;;;;19.50;49.30;97286.72;10253364;28;20110;-92
2022/05/06 01:30:07;;;;;;;2.35;2.15;;;;;;;19.50;49.19;97284.03;10267097;28;20054;-92
2022/05/06 01:35:30;;;;;;;2.03;1.92;;;;;;;19.50;49.11;97297.53;10284118;28;20081;-92
2022/05/06 01:40:52;;;;;;;2.15;2.00;;;;;;;19.50;49.23;97304.81;10252370;28;20469;-92
2022/05/06 01:46:17;;;;;;;2.13;2.03;;;;;;;19.49;49.58;97309.44;10241124;28;20077;-92
2022/05/06 01:51:45;;;;;;;2.13;2.03;;;;;;;19.47;49.30;97302.75;10271710;28;20180;-92
2022/05/06 01:57:10;;;;;;;2.30;1.92;;;;;;;19.48;49.25;97307.88;10274523;28;20501;-92
2022/05/06 02:02:30;;;;;;;2.33;1.98;;;;;;;19.46;49.20;97298.44;10248316;28;20059;-92
2022/05/06 02:07:54;;;;;;;2.15;1.95;;;;;;;19.45;49.27;97294.97;10248778;28;20121;-92
2022/05/06 02:13:19;;;;;;;1.98;1.80;;;;;;;19.45;49.17;97296.88;10279634;28;20497;-92
2022/05/06 02:19:06;;;;;;;2.38;2.17;;;;;;;19.46;49.26;97306.56;10280639;28;20050;-92
2022/05/06 02:24:46;;;;;;;1.80;1.70;;;;;;;19.44;49.16;97304.16;10269254;28;20484;-92
2022/05/06 02:36:11;;;;;;;1.77;1.67;;;;;;;19.42;49.16;97309.09;10273052;28;20051;-92
2022/05/06 02:41:31;;;;;;;2.00;1.90;;;;;;;19.43;49.23;97307.19;10252204;28;20101;-92
2022/05/06 02:46:51;;;;;;;1.92;1.83;;;;;;;19.42;49.23;97308.28;10245238;28;20066;-92
2022/05/06 02:52:11;;;;;;;2.70;1.77;;;;;;;19.42;49.04;97300.19;10263739;28;20068;-92
2022/05/06 02:57:32;;;;;;;2.22;1.92;;;;;;;19.41;49.24;97314.81;10263751;28;20521;-92
2022/05/06 03:02:55;;;;;;;2.00;1.90;;;;;;;19.41;49.14;97309.41;10261123;28;20093;-92
2022/05/06 03:08:15;;;;;;;2.00;1.90;;;;;;;19.40;49.20;97316.69;10249054;28;21341;-92
2022/05/06 03:13:35;;;;;;;2.40;2.20;;;;;;;19.39;49.10;97314.34;10252381;28;20043;-92
2022/05/06 03:19:00;;;;;;;1.77;1.67;;;;;;;19.38;49.18;97318.91;10242170;28;20413;-92
2022/05/06 03:24:20;;;;;;;1.77;1.67;;;;;;;19.38;49.16;97318.13;10232758;28;20044;-91
2022/05/06 03:29:41;;;;;;;1.90;1.70;;;;;;;19.38;49.11;97316.22;10262764;28;20047;-92
2022/05/06 03:35:01;;;;;;;1.80;1.70;;;;;;;19.37;49.31;97325.44;10256393;28;20532;-92
2022/05/06 03:40:22;;;;;;;1.98;1.88;;;;;;;19.35;49.08;97325.75;10255638;28;20055;-92
2022/05/06 03:45:43;;;;;;;2.20;2.00;;;;;;;19.36;48.97;97340.03;10249535;28;20134;-92
2022/05/06 03:51:21;;;;;;;2.00;1.90;;;;;;;19.34;49.13;97334.94;10271304;28;20071;-92
2022/05/06 03:56:43;;;;;;;1.88;1.77;;;;;;;19.35;49.06;97338.47;10241196;28;20410;-91
2022/05/06 04:02:04;;;;;;;1.85;1.73;;;;;;;19.37;49.10;97336.25;10261562;28;20070;-92
2022/05/06 04:07:25;;;;;;;2.13;1.92;;;;;;;19.38;49.49;97343.22;10290939;28;20023;-92
2022/05/06 04:12:49;;;;;;;2.85;2.05;;;;;;;19.39;49.63;97346.75;10262308;28;20066;-92
2022/05/06 04:18:17;;;;;;;2.22;2.03;;;;;;;19.40;49.46;97349.13;10257845;28;20057;-92
2022/05/06 04:23:38;;;;;;;2.00;1.88;;;;;;;19.42;49.50;97355.00;10270466;28;20154;-92
2022/05/06 04:29:10;;;;;;;;;;;;;;;19.44;49.64;97365.50;10266603;28;20047;-92
2022/05/06 04:34:32;;;;;;;1.95;1.77;;;;;;;19.45;49.42;97357.09;10264214;28;19922;-92
2022/05/06 04:39:55;;;;;;;2.00;1.90;;;;;;;19.49;49.33;97365.41;10228537;28;20055;-92
2022/05/06 04:45:17;;;;;;;2.05;1.83;;;;;;;19.50;49.45;97373.19;10257335;28;20073;-92
2022/05/06 04:51:02;;;;;;;1.95;1.80;;;;;;;19.52;49.55;97376.38;10283482;28;20034;-92
2022/05/06 04:56:22;;;;;;;2.40;1.85;;;;;;;19.53;49.39;97380.66;10286867;28;20681;-91
2022/05/06 05:01:44;;;;;;;6.28;2.65;;;;;;;19.56;49.43;97388.19;10240179;28;20058;-91
2022/05/06 05:07:06;;;;;;;7.90;3.03;;;;;;;19.58;49.31;97389.75;10266977;28;20122;-91
2022/05/06 05:12:36;;;;;;;7.20;3.00;;;;;;;19.61;49.45;97389.16;10263680;28;20090;-91
2022/05/06 05:17:57;;;;;;;7.53;4.03;;;;;;;19.62;49.11;97396.13;10270113;28;20057;-92
2022/05/06 05:23:18;;;;;;;7.90;3.72;;;;;;;19.65;49.59;97395.53;10267449;28;20054;-92
2022/05/06 05:28:38;;;;;;;8.77;3.58;;;;;;;19.67;49.62;97404.91;10244470;28;20058;-92
2022/05/06 05:33:59;;;;;;;9.55;3.63;;;;;;;19.71;49.72;97399.69;10261192;28;20059;-92
2022/05/06 05:39:19;;;;;;;10.95;3.83;;;;;;;19.74;49.83;97399.13;10246908;28;20055;-92
2022/05/06 05:50:27;;;;;;;7.90;3.75;;;;;;;19.79;49.83;97390.06;10291772;28;20042;-91
2022/05/06 05:55:48;;;;;;;8.77;3.75;;;;;;;19.83;49.79;97396.44;10259452;28;20078;-92
2022/05/06 06:01:14;;;;;;;6.82;3.50;;;;;;;19.86;49.54;97403.94;10264756;28;20051;-92
2022/05/06 06:06:35;;;;;;;7.95;3.80;;;;;;;19.88;49.50;97410.63;10270472;28;20042;-92
2022/05/06 06:11:59;;;;;;;7.72;3.47;;;;;;;19.90;49.53;97421.91;10246559;28;20095;-91
2022/05/06 06:17:19;;;;;;;6.28;3.40;;;;;;;19.92;49.41;97424.31;10268928;28;20046;-92
2022/05/06 06:22:40;;;;;;;7.70;3.30;;;;;;;19.93;49.42;97425.91;10252612;28;20133;-92
2022/05/06 06:28:01;;;;;;;9.30;3.50;;;;;;;19.94;49.32;97431.00;10264650;28;20066;-92
2022/05/06 06:33:22;;;;;;;9.43;3.42;;;;;;;19.97;49.37;97431.50;10289663;28;20038;-91
2022/05/06 06:38:43;;;;;;;9.18;5.80;;;;;;;19.86;45.33;97430.97;10229474;28;20105;-92
2022/05/06 06:44:02;;;;;;;9.60;5.80;;;;;;;19.68;43.78;97454.34;10244642;28;20051;-92
2022/05/06 06:49:37;;;;;;;6.80;5.65;;;;;;;19.54;43.38;97451.72;10249989;28;20077;-91
2022/05/06 06:55:09;;;;;;;7.38;5.53;;;;;;;19.42;43.38;97448.78;10247604;28;20050;-93
2022/05/06 07:00:36;;;;;;;4.68;4.13;;;;;;;19.49;44.34;97447.25;10245416;28;20141;-91
2022/05/06 07:11:54;;;;;;;4.43;3.55;;;;;;;19.66;45.18;97440.34;10268942;28;20054;-92
2022/05/06 07:17:20;;;;;;;4.05;3.13;;;;;;;19.71;45.34;97443.75;10274620;28;20050;-92
2022/05/06 07:22:43;;;;;;;3.45;3.15;;;;;;;19.74;45.53;97442.38;10264361;28;20670;-92
2022/05/06 07:28:22;;;;;;;;;;;;;;;19.77;45.67;97447.13;10283648;28;20046;-92
2022/05/06 07:33:41;;;;;;;4.35;3.30;;;;;;;19.79;45.77;97449.53;10272854;28;20013;-91
2022/05/06 07:39:05;;;;;;;3.55;3.13;;;;;;;19.82;45.69;97468.66;10270621;28;20131;-92
2022/05/06 07:44:28;;;;;;;3.90;3.30;;;;;;;19.82;45.80;97465.16;10250585;28;20105;-92
2022/05/06 07:49:48;;;;;;;4.68;3.08;;;;;;;19.83;46.28;97458.63;10244120;28;20062;-91
2022/05/06 07:55:13;;;;;;;6.47;5.57;;;;;;;19.76;45.24;97461.78;10257295;28;20494;-92
2022/05/06 08:00:33;;;;;;;4.13;3.40;;;;;;;19.76;46.02;97461.78;10239620;28;20122;-92
2022/05/06 08:05:59;;;;;;;4.18;3.10;;;;;;;19.81;46.31;97464.34;10246145;28;20075;-92
2022/05/06 08:11:19;;;;;;;3.92;3.20;;;;;;;19.82;46.32;97463.25;10256402;28;20401;-92
2022/05/06 08:16:39;;;;;;;3.53;3.22;;;;;;;19.84;46.28;97463.72;10274844;28;20072;-91
2022/05/06 08:22:03;;;;;;;4.38;3.40;;;;;;;19.85;46.52;97459.91;10273330;28;20058;-92
2022/05/06 08:27:26;;;;;;;3.30;3.00;;;;;;;19.86;46.48;97466.91;10255088;28;20085;-92
2022/05/06 08:32:51;;;;;;;4.20;3.50;;;;;;;19.87;46.50;97470.41;10298428;28;20046;-92
2022/05/06 08:38:19;;;;;;;3.42;2.95;;;;;;;19.87;46.60;97463.09;10277810;28;20502;-91
2022/05/06 08:43:39;;;;;;;3.45;2.88;;;;;;;19.88;46.68;97466.63;10262674;28;20055;-92
2022/05/06 08:54:41;;;;;;;3.67;2.83;;;;;;;19.91;46.80;97474.88;10277331;28;20059;-91
2022/05/06 09:00:01;;;;;;;3.40;3.08;;;;;;;19.91;46.79;97488.41;10280262;28;20070;-92
2022/05/06 09:05:21;;;;;;;3.05;2.67;;;;;;;19.91;46.93;97483.00;10225667;28;20051;-92
2022/05/06 09:10:42;;;;;;;3.20;3.00;;;;;;;19.92;46.91;97484.59;10240381;28;20135;-92
2022/05/06 09:16:44;;;;;;;3.63;2.90;;;;;;;19.91;47.14;97483.00;10275880;28;20138;-92
2022/05/06 09:22:11;;;;;;;2.90;2.70;;;;;;;19.93;46.97;97479.97;10256286;28;20054;-91
2022/05/06 09:27:31;;;;;;;2.78;2.58;;;;;;;19.93;46.99;97486.22;10247248;28;20146;-92
2022/05/06 09:32:52;;;;;;;4.30;2.88;;;;;;;19.93;47.11;97485.41;10254706;28;20503;-92
2022/05/06 09:38:16;;;;;;;2.75;2.55;;;;;;;19.93;46.96;97488.91;10260757;28;20050;-91
2022/05/06 09:43:40;;;;;;;3.00;2.75;;;;;;;19.94;46.80;97484.31;10240438;28;20046;-92
2022/05/06 09:49:04;;;;;;;2.90;2.60;;;;;;;19.93;47.08;97488.91;10277942;28;20122;-92
2022/05/06 09:54:34;;;;;;;3.65;2.40;;;;;;;19.93;47.19;97486.22;10252911;28;20048;-93
2022/05/06 09:59:53;;;;;;;2.90;2.70;;;;;;;19.93;47.21;97478.09;10291892;28;20043;-91
2022/05/06 10:05:13;;;;;;;2.75;2.55;;;;;;;19.96;47.10;97484.78;10234961;28;20058;-93
2022/05/06 10:10:40;;;;;;;4.60;2.47;;;;;;;19.95;47.28;97481.28;10255436;28;20070;-91
2022/05/06 10:16:00;;;;;;;3.20;2.90;;;;;;;19.97;47.58;97482.88;10266527;28;20057;-92
2022/05/06 10:21:47;;;;;;;3.30;2.90;;;;;;;19.97;47.38;97480.16;10288278;28;20066;-91
2022/05/06 10:33:08;;;;;;;2.72;2.53;;;;;;;19.98;47.49;97487.19;10259603;28;20058;-92
2022/05/06 10:38:31;;;;;;;5.10;2.80;;;;;;;19.97;47.67;97477.47;10269415;28;20520;-93
2022/05/06 10:43:56;;;;;;;3.28;2.97;;;;;;;19.95;46.98;97473.19;10267908;28;20066;-92
2022/05/06 10:49:39;;;;;;;5.07;3.00;;;;;;;19.95;47.71;97475.06;10255673;28;20073;-92
2022/05/06 10:55:03;;;;;;;3.13;2.83;;;;;;;19.97;47.88;97477.47;10267216;28;20055;-91
2022/05/06 11:00:25;;;;;;;3.35;2.65;;;;;;;19.99;47.87;97469.84;10289090;28;20108;-91
2022/05/06 11:05:52;;;;;;;3.70;2.50;;;;;;;19.99;47.88;97465.22;10250916;28;20054;-92
2022/05/06 11:11:19;;;;;;;3.58;2.65;;;;;;;19.99;48.18;97456.31;10272414;28;20047;-92
2022/05/06 11:16:40;;;;;;;3.88;2.70;;;;;;;19.99;48.40;97459.81;10244760;28;20093;-91
2022/05/06 11:22:16;;;;;;;5.05;3.05;;;;;;;20.01;48.28;97460.28;10283172;28;20038;-92
2022/05/06 11:27:41;;;;;;;5.93;4.13;;;;;;;19.99;47.99;97453.59;10263614;28;20054;-93
2022/05/06 11:33:28;;;;;;;6.45;4.90;;;;;;;19.96;47.95;97455.03;10278347;28;20525;-93
2022/05/06 11:38:54;;;;;;;8.30;5.25;;;;;;;19.96;47.93;97455.03;10276200;28;20047;-92
2022/05/06 11:47:27;;;;;;;7.80;5.10;;;;;;;19.94;48.23;97451.84;10257226;28;20061;-93
2022/05/06 11:50:10;;;;;;;7.25;5.25;;;;;;;19.96;48.17;97449.63;10261821;28;20622;-92
2022/05/06 11:55:32;;;;;;;6.63;5.05;;;;;;;19.95;48.49;97448.03;10267484;28;20054;-91
2022/05/06 12:00:53;;;;;;;8.10;5.60;;;;;;;19.94;48.05;97447.22;10266134;28;20150;-91
2022/05/06 12:06:25;;;;;;;6.00;5.45;;;;;;;19.93;47.78;97442.13;10231442;28;20093;-91
2022/05/06 12:12:05;;;;;;;5.70;5.10;;;;;;;19.93;48.03;97437.53;10259778;28;20550;-91
2022/05/06 12:17:40;;;;;;;7.47;5.25;;;;;;;19.95;48.95;97440.72;10254621;28;20047;-91
2022/05/06 12:23:28;;;;;;;7.30;6.60;;;;;;;19.97;48.13;97445.81;10282483;28;20053;-92
2022/05/06 12:28:50;;;;;;;6.93;6.22;;;;;;;19.95;47.64;97443.44;10245610;28;20039;-92
2022/05/06 12:34:14;;;;;;;7.80;6.07;;;;;;;19.93;47.08;97434.00;10259403;28;20102;-92
2022/05/06 12:39:41;;;;;;;7.10;5.88;;;;;;;19.91;47.06;97431.63;10243759;28;20058;-92
2022/05/06 12:45:06;;;;;;;6.03;5.32;;;;;;;19.90;46.45;97429.25;10269613;28;20047;-92
2022/05/06 12:50:30;;;;;;;6.15;4.70;;;;;;;19.88;46.05;97426.06;10291592;28;20045;-92
2022/05/06 12:55:51;;;;;;;5.35;4.88;;;;;;;19.87;45.73;97430.63;10297821;28;20133;-90
2022/05/06 13:01:14;;;;;;;7.65;5.07;;;;;;;19.87;45.72;97427.16;10268779;28;20057;-91
2022/05/06 13:06:34;;;;;;;14.35;9.32;;;;;;;19.86;45.25;97428.28;10293148;28;20089;-91
2022/05/06 13:11:57;;;;;;;11.88;7.57;;;;;;;19.84;45.09;97420.47;10279272;28;20046;-91
2022/05/06 13:17:23;;;;;;;8.65;5.80;;;;;;;19.83;45.14;97412.66;10285132;28;20061;-92
2022/05/06 13:22:54;;;;;;;9.75;6.70;;;;;;;19.82;45.04;97400.25;10301267;28;20678;-91
2022/05/06 13:28:17;;;;;;;9.63;6.30;;;;;;;19.83;45.39;97412.66;10273114;28;20043;-91
2022/05/06 13:33:38;;;;;;;6.95;5.65;;;;;;;19.82;45.33;97408.38;10275078;28;20482;-91
2022/05/06 13:38:59;;;;;;;9.88;6.03;;;;;;;19.80;44.89;97415.97;10293534;28;20081;-91
2022/05/06 13:44:19;;;;;;;7.70;5.22;;;;;;;19.78;44.81;97408.19;10286747;28;20074;-92
2022/05/06 13:49:44;;;;;;;6.63;5.68;;;;;;;19.74;44.36;97401.81;10253484;28;20165;-91
2022/05/06 13:55:08;;;;;;;8.05;6.57;;;;;;;19.71;44.53;97394.28;10251608;28;20047;-92
2022/05/06 14:00:40;;;;;;;8.82;5.93;;;;;;;19.72;44.58;97395.94;10236064;28;20055;-92
2022/05/06 14:06:06;;;;;;;5.60;4.70;;;;;;;19.73;44.47;97400.22;10249162;29;20051;-92
2022/05/06 14:11:36;;;;;;;7.20;4.45;;;;;;;19.74;44.37;97399.91;10270293;28;20043;-91
2022/05/06 14:16:58;;;;;;;5.68;4.85;;;;;;;19.73;44.28;97395.59;10256948;28;20059;-92
2022/05/06 14:22:20;;;;;;;7.40;5.15;;;;;;;19.74;43.95;97393.72;10259640;28;20063;-91
2022/05/06 14:27:48;;;;;;;7.65;4.78;;;;;;;19.74;44.25;97388.31;10260608;28;20043;-91
2022/05/06 14:33:08;;;;;;;8.65;5.35;;;;;;;19.74;44.36;97385.59;10233463;28;20051;-91
2022/05/06 14:38:28;;;;;;;6.32;4.68;;;;;;;19.75;43.91;97390.66;10234463;29;20443;-92
2022/05/06 14:43:48;;;;;;;5.82;4.55;;;;;;;19.77;43.78;97386.88;10236039;29;20062;-91
2022/05/06 14:49:07;;;;;;;7.43;4.70;;;;;;;19.77;43.71;97382.25;10266787;28;20043;-92
2022/05/06 14:54:29;;;;;;;6.07;4.55;;;;;;;19.77;43.99;97379.53;10249202;28;20059;-90
2022/05/06 14:59:48;;;;;;;7.35;4.43;;;;;;;19.78;44.15;97383.88;10229295;28;20072;-90
2022/05/06 15:05:09;;;;;;;5.22;3.60;;;;;;;19.79;44.44;97384.66;10231021;28;20043;-92
2022/05/06 15:10:30;;;;;;;6.43;4.30;;;;;;;19.79;44.29;97382.75;10223888;28;20051;-91
2022/05/06 15:16:01;;;;;;;6.15;4.07;;;;;;;19.81;44.14;97385.94;10230113;28;20053;-92
2022/05/06 15:21:25;;;;;;;5.30;4.03;;;;;;;19.82;43.98;97384.03;10237038;28;20086;-91
2022/05/06 15:26:53;;;;;;;4.85;3.63;;;;;;;19.81;44.95;97375.13;10274555;28;20039;-93
2022/05/06 15:32:49;;;;;;;5.90;3.67;;;;;;;19.83;45.39;97372.88;10250096;28;20047;-92
2022/05/06 15:38:12;;;;;;;5.65;4.03;;;;;;;19.86;45.61;97377.69;10256377;28;20103;-91
2022/05/06 15:43:45;;;;;;;4.78;4.22;;;;;;;19.84;43.91;97376.41;10219236;28;20060;-91
2022/05/06 15:49:18;;;;;;;6.63;4.53;;;;;;;19.81;44.25;97377.81;10202627;29;20063;-93
2022/05/06 15:54:48;;;;;;;6.00;4.78;;;;;;;19.83;44.48;97375.59;10231281;28;20052;-92
2022/05/06 16:00:31;;;;;;;9.65;4.30;;;;;;;19.83;44.89;97378.31;10229679;29;20109;-92
2022/05/06 16:06:01;;;;;;;4.28;3.88;;;;;;;19.85;45.74;97370.69;10226881;29;20055;-91
2022/05/06 16:11:25;;;;;;;9.95;4.90;;;;;;;19.89;45.63;97377.03;10244992;28;20038;-93
2022/05/06 16:17:01;;;;;;;7.78;5.85;;;;;;;19.89;44.96;97377.03;10243277;28;20546;-93
2022/05/06 16:22:36;;;;;;;7.35;5.32;;;;;;;19.90;44.94;97369.75;10232030;28;20126;-92
2022/05/06 16:28:00;;;;;;;4.57;4.18;;;;;;;19.90;45.08;97370.53;10231775;29;21475;-91
2022/05/06 16:33:28;;;;;;;5.57;4.10;;;;;;;19.91;45.85;97365.94;10225745;29;20058;-92
2022/05/06 16:39:04;;;;;;;5.78;4.18;;;;;;;19.92;46.15;97365.63;10219412;29;20728;-92
2022/05/06 16:44:50;;;;;;;11.80;6.13;;;;;;;19.94;46.68;97371.50;10232778;28;20055;-92
2022/05/06 16:50:22;;;;;;;18.08;7.47;;;;;;;19.97;48.50;97363.88;10212179;29;20052;-91
2022/05/06 16:55:57;;;;;;;16.52;8.40;;;;;;;20.01;49.88;97362.16;10195895;29;20055;-92
2022/05/06 17:01:31;;;;;;;14.40;7.80;;;;;;;20.04;50.49;97361.53;10192495;29;20466;-91
2022/05/06 17:07:17;;;;;;;8.98;7.22;;;;;;;20.06;50.81;97367.41;10206164;28;20058;-92
2022/05/06 17:12:58;;;;;;;11.27;6.95;;;;;;;20.07;50.96;97361.72;10221366;29;20083;-93
2022/05/06 17:18:30;;;;;;;9.77;6.80;;;;;;;20.10;50.73;97357.56;10225847;28;20558;-92
2022/05/06 17:23:51;;;;;;;10.30;6.25;;;;;;;20.09;50.86;97361.38;10245068;28;20506;-91
2022/05/06 17:29:42;;;;;;;9.85;6.60;;;;;;;20.11;50.96;97367.25;10225869;29;20048;-92
2022/05/06 17:35:55;;;;;;;;;;;;;;;;;;;;;
2022/05/06 17:42:04;;;;;;;7.97;5.90;;;;;;;20.11;50.53;97370.78;10197045;29;20044;-92
2022/05/06 17:47:27;;;;;;;7.40;5.65;;;;;;;20.11;50.34;97362.66;10159789;29;20054;-92
2022/05/06 17:53:01;;;;;;;6.90;5.40;;;;;;;20.13;50.36;97370.44;10223340;28;20054;-92
2022/05/06 17:58:22;;;;;;;7.78;5.95;;;;;;;20.13;50.02;97375.84;10234499;28;20048;-91
2022/05/06 18:03:53;;;;;;;6.68;4.95;;;;;;;20.13;49.97;97383.97;10254764;28;20103;-91
2022/05/06 18:09:31;;;;;;;5.95;5.05;;;;;;;20.13;50.10;97381.28;10269321;28;20494;-91
2022/05/06 18:15:14;;;;;;;5.80;4.93;;;;;;;20.13;49.98;97383.97;10237843;28;20067;-92
2022/05/06 18:20:51;;;;;;;5.10;4.60;;;;;;;20.12;49.68;97396.72;10248584;28;20555;-91
2022/05/06 18:26:11;;;;;;;6.28;4.90;;;;;;;20.13;49.79;97392.09;10258878;28;20508;-91
2022/05/06 18:38:30;;;;;;;6.05;4.32;;;;;;;20.12;49.81;97402.13;10260391;28;20402;-91
2022/05/06 18:50:58;;;;;;;6.00;4.47;;;;;;;20.12;49.61;97410.22;10082421;29;20054;-92
2022/05/06 18:56:42;;;;;;;4.72;4.18;;;;;;;20.12;49.74;97418.34;10210054;29;20051;-91
2022/05/06 19:02:51;;;;;;;5.90;4.10;;;;;;;20.12;49.50;97415.66;10201354;29;20443;-93
2022/05/06 19:08:30;;;;;;;4.50;3.88;;;;;;;20.11;49.55;97422.19;10184130;29;20479;-92
2022/05/06 19:14:09;;;;;;;4.43;4.03;;;;;;;20.12;49.48;97426.47;10242998;28;20055;-92
2022/05/06 19:20:34;;;;;;;5.88;4.35;;;;;;;20.11;49.37;97427.59;10251088;28;20392;-93
2022/05/06 19:26:38;;;;;;;4.60;4.10;;;;;;;20.10;49.39;97428.69;10250011;28;20066;-92
2022/05/06 19:33:36;;;;;;;5.45;4.20;;;;;;;20.10;49.40;97434.09;10296282;28;20055;-93
2022/05/06 19:54:27;;;;;;;9.27;5.28;;;;;;;20.08;49.33;97441.72;10031577;29;20045;-93
2022/05/06 20:00:38;;;;;;;10.90;5.20;;;;;;;20.09;49.34;97437.09;10001612;29;20103;-93
2022/05/06 20:06:45;;;;;;;7.82;4.82;;;;;;;20.08;49.33;97443.63;9992455;29;20053;-93
2022/05/06 20:13:07;;;;;;;8.27;4.90;;;;;;;20.08;49.39;97446.34;10182957;29;20052;-93
2022/05/06 20:19:15;;;;;;;9.20;4.93;;;;;;;20.07;49.21;97428.50;10255583;28;20134;-92
2022/05/06 20:25:19;;;;;;;;;;;;;;;20.07;49.36;97432.03;10249527;28;20058;-93
2022/05/06 20:31:36;;;;;;;6.72;4.55;;;;;;;20.06;49.32;97429.63;10175284;28;20074;-93
2022/05/06 20:37:16;;;;;;;7.72;4.68;;;;;;;20.05;49.23;97428.84;10240285;28;20055;-91
2022/05/06 20:42:38;;;;;;;5.88;4.30;;;;;;;20.05;49.25;97425.31;10237646;29;20055;-93
2022/05/06 20:48:04;;;;;;;7.43;4.80;;;;;;;20.05;49.28;97428.03;10250406;28;20050;-92
2022/05/06 20:54:15;;;;;;;9.95;5.20;;;;;;;20.03;49.30;97416.72;10261477;28;20113;-92
2022/05/06 20:59:39;;;;;;;7.22;5.30;;;;;;;20.04;49.23;97423.75;10220526;28;20075;-91
2022/05/06 21:05:13;;;;;;;10.82;5.57;;;;;;;20.03;49.31;97416.72;10210662;28;20057;-93
2022/05/06 21:16:45;;;;;;;8.70;4.80;;;;;;;20.02;50.20;97409.72;10239335;28;20059;-93
2022/05/06 21:22:06;;;;;;;5.97;5.10;;;;;;;20.02;50.20;97415.13;10244708;28;20180;-91
2022/05/06 21:27:34;;;;;;;7.20;4.57;;;;;;;20.01;50.19;97419.72;10235871;28;20414;-92
2022/05/06 21:32:58;;;;;;;7.63;4.40;;;;;;;20.01;50.17;97416.22;10254613;28;20086;-91
2022/05/06 21:38:31;;;;;;;6.93;4.50;;;;;;;20.01;50.17;97413.53;10235503;28;20052;-93
2022/05/06 21:44:15;;;;;;;5.97;4.43;;;;;;;20.00;50.16;97412.75;10237278;28;20085;-91
2022/05/06 21:50:13;;;;;;;5.05;4.05;;;;;;;20.00;50.04;97425.47;10276581;28;20082;-92
2022/05/06 21:55:59;;;;;;;6.40;4.63;;;;;;;19.99;49.91;97415.75;10207602;29;20055;-93
2022/05/06 22:01:51;;;;;;;6.78;4.38;;;;;;;19.97;49.96;97416.06;10191898;29;20054;-93
2022/05/06 22:07:40;;;;;;;6.70;4.60;;;;;;;19.97;49.71;97415.25;10188180;29;20146;-93
2022/05/06 22:13:22;;;;;;;5.18;4.28;;;;;;;19.97;49.81;97409.84;10208387;29;20127;-92
2022/05/06 22:18:50;;;;;;;5.90;4.30;;;;;;;19.96;49.75;97411.78;10176534;29;20064;-93
2022/05/06 22:24:19;;;;;;;6.45;4.30;;;;;;;19.95;49.79;97408.28;10236342;28;20060;-92
2022/05/06 22:30:30;;;;;;;5.38;3.67;;;;;;;19.94;49.88;97409.38;10272576;28;20047;-93
2022/05/06 22:35:58;;;;;;;5.00;3.88;;;;;;;19.94;49.66;97408.59;10285135;28;20470;-91
2022/05/06 22:47:20;;;;;;;4.55;3.67;;;;;;;19.92;49.73;97406.19;10299213;28;20058;-92
2022/05/06 22:53:01;;;;;;;4.38;3.83;;;;;;;19.92;49.58;97408.88;10309281;28;20061;-92
2022/05/06 22:58:22;;;;;;;5.07;3.92;;;;;;;19.92;49.65;97405.41;10261164;28;20050;-91
2022/05/06 23:03:46;;;;;;;5.88;4.15;;;;;;;19.91;49.58;97415.38;10291250;28;20054;-92
2022/05/06 23:09:06;;;;;;;5.90;3.85;;;;;;;19.90;49.71;97411.09;10290661;28;20038;-91
2022/05/06 23:14:26;;;;;;;6.05;3.90;;;;;;;19.91;49.54;97409.19;10274968;28;20043;-92
2022/05/06 23:19:49;;;;;;;6.03;4.07;;;;;;;19.90;49.61;97410.31;10248821;28;20546;-93
2022/05/06 23:25:13;;;;;;;4.43;3.63;;;;;;;19.89;49.68;97414.13;10249861;28;20110;-92
2022/05/06 23:30:38;;;;;;;5.13;3.67;;;;;;;19.88;49.56;97409.84;10253286;28;20100;-91
2022/05/06 23:42:07;;;;;;;5.00;3.75;;;;;;;19.87;49.47;97411.72;10271571;28;20254;-92
2022/05/06 23:47:45;;;;;;;5.60;3.35;;;;;;;19.86;49.56;97414.75;10249684;28;20573;-91
2022/05/06 23:53:05;;;;;;;5.10;3.78;;;;;;;19.86;49.45;97406.63;10195598;29;20063;-91
2022/05/06 23:58:24;;;;;;;4.35;3.60;;;;;;;19.86;49.57;97401.22;10233107;28;20491;-92
